Cygnus Leader — 3EKK5 — position and weather

sailwx.info

Track history (hours):
 
Tides and Currents Weather Stations Pressure Air Temp Water Temp Dewpoint Dewpoint Depression Visibility Wind Speed Wind Dir Waves Ship Positions

Cygnus Leader

Last reported at 2018-Feb-22 04:58 UTC. Time now 2018-Feb-22 05:09 UTC.
Position N 45°38' W 122°43'.

Length 199 m; draft 9.1 m.

Type: Ship. MMSI: 372747000.

Date/timePositionNaut miles runAvg speedWind from/ knotsBaromVisibWave heightAir tempDewpointWater temp
2018-Feb-22 04:58N 45°38' W 122°43'0 0.1
2018-Feb-22 04:31N 45°38' W 122°43'4 7.0
2018-Feb-22 04:00N 45°41' W 122°47'613.0
2018-Feb-22 03:31N 45°47' W 122°47'612.7
2018-Feb-22 03:00N 45°54' W 122°48'611.9
2018-Feb-22 02:30N 45°59' W 122°51'510.6
2018-Feb-22 02:00N 46°04' W 122°53'5 9.7
2018-Feb-22 01:30N 46°07' W 122°59'713.2
2018-Feb-22 01:00N 46°11' W 123°07'713.4
2018-Feb-22 00:31N 46°09' W 123°16'612.0
2018-Feb-22 00:00N 46°10' W 123°25'612.8
2018-Feb-21 23:30N 46°16' W 123°28'714.0
2018-Feb-21 23:01N 46°16' W 123°38'713.4
2018-Feb-21 22:31N 46°13' W 123°47'5 9.6
2018-Feb-21 22:00N 46°11' W 123°53'815.7
2018-Feb-21 21:31N 46°15' W 124°03'713.3
2018-Feb-21 21:00N 46°13' W 124°12'4 7.7
2018-Feb-21 20:31N 46°16' W 124°16'4 8.6
2018-Feb-21 20:00N 46°19' W 124°21'5 9.3
2018-Feb-21 19:30N 46°22' W 124°26'510.3
2018-Feb-21 19:00N 46°25' W 124°32'610.7
2018-Feb-21 18:26N 46°26' W 124°41'611.0
2018-Feb-21 17:52N 46°27' W 124°50'410.7
2018-Feb-21 17:29N 46°27' W 124°55'511.3
2018-Feb-21 17:00N 46°28' W 125°03'612.2
2018-Feb-21 16:30N 46°29' W 125°12'611.5
2018-Feb-21 16:00N 46°31' W 125°20'713.5
2018-Feb-21 15:30N 46°37' W 125°20'814.6
2018-Feb-21 14:59N 46°45' W 125°20'816.2
2018-Feb-21 14:28N 46°53' W 125°20'6716.2
2018-Feb-21 10:19N 48°01' W 125°20'515.9
2018-Feb-21 09:59N 48°06' W 125°20'815.7
2018-Feb-21 09:29N 48°14' W 125°18'817.2
2018-Feb-21 09:00N 48°21' W 125°11'917.7
2018-Feb-21 08:30N 48°28' W 125°04'816.0
2018-Feb-21 08:00N 48°31' W 124°53'918.2
2018-Feb-21 07:30N 48°29' W 124°39'918.7
2018-Feb-21 07:00N 48°26' W 124°26'918.8
2018-Feb-21 06:30N 48°22' W 124°13'918.7
2018-Feb-21 06:00N 48°19' W 123°60'1018.9
2018-Feb-21 05:30N 48°16' W 123°46'1116.6
2018-Feb-21 04:51N 48°16' W 123°30'615.0
2018-Feb-21 04:29N 48°21' W 123°25'5 9.6
2018-Feb-21 04:00N 48°23' W 123°19'713.7
2018-Feb-21 03:30N 48°28' W 123°12'917.2
2018-Feb-21 03:00N 48°37' W 123°14'714.0
2018-Feb-21 02:30N 48°43' W 123°11'816.2
2018-Feb-21 02:00N 48°48' W 123°01'817.3
2018-Feb-21 01:30N 48°55' W 123°09'816.5
2018-Feb-21 01:00N 49°00' W 123°18'510.8
2018-Feb-21 00:30N 49°06' W 123°19'510.2
2018-Feb-21 00:00N 49°07' W 123°12'610.7
2018-Feb-20 23:28N 49°08' W 123°03'511.2
2018-Feb-20 23:00N 49°10' W 122°56'1 2.1
2018-Feb-20 22:29N 49°11' W 122°55'0 0.0
2018-Feb-20 22:00N 49°11' W 122°55'0 0.0
2018-Feb-20 21:30N 49°11' W 122°55'0 0.0
2018-Feb-20 21:00N 49°11' W 122°55'0 0.0
2018-Feb-20 20:29N 49°11' W 122°55'0 0.0
2018-Feb-20 20:00N 49°11' W 122°55'0 0.0
2018-Feb-20 19:30N 49°11' W 122°55'0 0.0
2018-Feb-20 18:59N 49°11' W 122°55'0 0.0
2018-Feb-20 18:29N 49°11' W 122°55'0 0.0
2018-Feb-20 17:59N 49°11' W 122°55'0 0.0
2018-Feb-20 17:30N 49°11' W 122°55'0 0.0
2018-Feb-20 16:57N 49°11' W 122°55'0 0.0
2018-Feb-20 16:30N 49°11' W 122°55'0 0.0
2018-Feb-20 16:00N 49°11' W 122°55'0 0.0
2018-Feb-20 15:30N 49°11' W 122°55'0 0.0
2018-Feb-20 15:00N 49°11' W 122°55'0 0.0
2018-Feb-20 14:30N 49°11' W 122°55'0 0.2
2018-Feb-20 14:00N 49°11' W 122°55'3 6.7
2018-Feb-20 13:30N 49°09' W 122°60'5 9.7
2018-Feb-20 13:00N 49°07' W 123°06'5 9.3
2018-Feb-20 12:30N 49°08' W 123°13'4 8.6
2018-Feb-20 12:00N 49°06' W 123°19'2 3.7
2018-Feb-20 11:30N 49°04' W 123°20'713.4
2018-Feb-20 11:00N 48°60' W 123°13'917.2
2018-Feb-20 10:30N 48°53' W 123°04'714.2
2018-Feb-20 10:00N 48°46' W 123°02'816.4
2018-Feb-20 09:30N 48°42' W 123°13'815.2
2018-Feb-20 09:00N 48°35' W 123°13'815.7
2018-Feb-20 08:30N 48°27' W 123°10'713.8
2018-Feb-20 08:01N 48°22' W 123°17'510.2
2018-Feb-20 07:31N 48°20' W 123°24'712.5
2018-Feb-20 06:59N 48°14' W 123°30'510.0
2018-Feb-20 06:30N 48°13' W 123°37'4 8.8
2018-Feb-20 06:00N 48°13' W 123°43'4 8.6
2018-Feb-20 05:30N 48°13' W 123°50'4 8.0
2018-Feb-20 05:01N 48°13' W 123°56'4 8.2
2018-Feb-20 04:30N 48°15' W 124°01'4 8.4
2018-Feb-20 04:00N 48°17' W 124°07'4 8.4
2018-Feb-20 03:30N 48°19' W 124°13'5 8.9
2018-Feb-20 02:59N 48°21' W 124°19'4 8.9
2018-Feb-20 02:31N 48°23' W 124°25'5 9.1
2018-Feb-20 02:00N 48°24' W 124°31'5 9.1
2018-Feb-20 01:30N 48°26' W 124°37'4 8.9
2018-Feb-20 01:00N 48°28' W 124°43'4 8.9
2018-Feb-20 00:30N 48°28' W 124°50'5 9.2
2018-Feb-20 00:00N 48°28' W 124°57'5 9.6
2018-Feb-19 23:29N 48°28' W 125°05'5 9.8
2018-Feb-19 23:00N 48°29' W 125°12'5 9.8
2018-Feb-19 22:30N 48°29' W 125°19'5 9.4
2018-Feb-19 22:01N 48°29' W 125°26'5 9.1
2018-Feb-19 21:30N 48°29' W 125°33'4 9.0
2018-Feb-19 21:00N 48°29' W 125°40'510.3
2018-Feb-19 20:31N 48°29' W 125°48'5 9.3
2018-Feb-19 20:01N 48°29' W 125°55'5 9.2
2018-Feb-19 19:30N 48°29' W 126°02'5 9.2
2018-Feb-19 19:01N 48°28' W 126°08'5 9.3
2018-Feb-19 18:30N 48°28' W 126°15'5 9.4
2018-Feb-19 17:59N 48°28' W 126°23'5 9.2
2018-Feb-19 17:26N 48°28' W 126°30'  
Track history (hours):
 
Tides and Currents Weather Stations Pressure Air Temp Water Temp Dewpoint Dewpoint Depression Visibility Wind Speed Wind Dir Waves Ship Positions

Cygnus Leader

Last reported at 2018-Feb-22 04:58 UTC. Time now 2018-Feb-22 05:09 UTC.
Position N 45°38' W 122°43'.

Length 199 m; draft 9.1 m.

Type: Ship. MMSI: 372747000.

Date/timePositionNaut miles runAvg speedWind from/ knotsBaromVisibWave heightAir tempDewpointWater temp
2018-Feb-22 04:58N 45°38' W 122°43'0 0.1
2018-Feb-22 04:31N 45°38' W 122°43'4 7.0
2018-Feb-22 04:00N 45°41' W 122°47'613.0
2018-Feb-22 03:31N 45°47' W 122°47'612.7
2018-Feb-22 03:00N 45°54' W 122°48'611.9
2018-Feb-22 02:30N 45°59' W 122°51'510.6
2018-Feb-22 02:00N 46°04' W 122°53'5 9.7
2018-Feb-22 01:30N 46°07' W 122°59'713.2
2018-Feb-22 01:00N 46°11' W 123°07'713.4
2018-Feb-22 00:31N 46°09' W 123°16'612.0
2018-Feb-22 00:00N 46°10' W 123°25'612.8
2018-Feb-21 23:30N 46°16' W 123°28'714.0
2018-Feb-21 23:01N 46°16' W 123°38'713.4
2018-Feb-21 22:31N 46°13' W 123°47'5 9.6
2018-Feb-21 22:00N 46°11' W 123°53'815.7
2018-Feb-21 21:31N 46°15' W 124°03'713.3
2018-Feb-21 21:00N 46°13' W 124°12'4 7.7
2018-Feb-21 20:31N 46°16' W 124°16'4 8.6
2018-Feb-21 20:00N 46°19' W 124°21'5 9.3
2018-Feb-21 19:30N 46°22' W 124°26'510.3
2018-Feb-21 19:00N 46°25' W 124°32'610.7
2018-Feb-21 18:26N 46°26' W 124°41'611.0
2018-Feb-21 17:52N 46°27' W 124°50'410.7
2018-Feb-21 17:29N 46°27' W 124°55'511.3
2018-Feb-21 17:00N 46°28' W 125°03'612.2
2018-Feb-21 16:30N 46°29' W 125°12'611.5
2018-Feb-21 16:00N 46°31' W 125°20'713.5
2018-Feb-21 15:30N 46°37' W 125°20'814.6
2018-Feb-21 14:59N 46°45' W 125°20'816.2
2018-Feb-21 14:28N 46°53' W 125°20'6716.2
2018-Feb-21 10:19N 48°01' W 125°20'515.9
2018-Feb-21 09:59N 48°06' W 125°20'815.7
2018-Feb-21 09:29N 48°14' W 125°18'817.2
2018-Feb-21 09:00N 48°21' W 125°11'917.7
2018-Feb-21 08:30N 48°28' W 125°04'816.0
2018-Feb-21 08:00N 48°31' W 124°53'918.2
2018-Feb-21 07:30N 48°29' W 124°39'918.7
2018-Feb-21 07:00N 48°26' W 124°26'918.8
2018-Feb-21 06:30N 48°22' W 124°13'918.7
2018-Feb-21 06:00N 48°19' W 123°60'1018.9
2018-Feb-21 05:30N 48°16' W 123°46'1116.6
2018-Feb-21 04:51N 48°16' W 123°30'615.0
2018-Feb-21 04:29N 48°21' W 123°25'5 9.6
2018-Feb-21 04:00N 48°23' W 123°19'713.7
2018-Feb-21 03:30N 48°28' W 123°12'917.2
2018-Feb-21 03:00N 48°37' W 123°14'714.0
2018-Feb-21 02:30N 48°43' W 123°11'816.2
2018-Feb-21 02:00N 48°48' W 123°01'817.3
2018-Feb-21 01:30N 48°55' W 123°09'816.5
2018-Feb-21 01:00N 49°00' W 123°18'510.8
2018-Feb-21 00:30N 49°06' W 123°19'510.2
2018-Feb-21 00:00N 49°07' W 123°12'610.7
2018-Feb-20 23:28N 49°08' W 123°03'511.2
2018-Feb-20 23:00N 49°10' W 122°56'1 2.1
2018-Feb-20 22:29N 49°11' W 122°55'0 0.0
2018-Feb-20 22:00N 49°11' W 122°55'0 0.0
2018-Feb-20 21:30N 49°11' W 122°55'0 0.0
2018-Feb-20 21:00N 49°11' W 122°55'0 0.0
2018-Feb-20 20:29N 49°11' W 122°55'0 0.0
2018-Feb-20 20:00N 49°11' W 122°55'0 0.0
2018-Feb-20 19:30N 49°11' W 122°55'0 0.0
2018-Feb-20 18:59N 49°11' W 122°55'0 0.0
2018-Feb-20 18:29N 49°11' W 122°55'0 0.0
2018-Feb-20 17:59N 49°11' W 122°55'0 0.0
2018-Feb-20 17:30N 49°11' W 122°55'0 0.0
2018-Feb-20 16:57N 49°11' W 122°55'0 0.0
2018-Feb-20 16:30N 49°11' W 122°55'0 0.0
2018-Feb-20 16:00N 49°11' W 122°55'0 0.0
2018-Feb-20 15:30N 49°11' W 122°55'0 0.0
2018-Feb-20 15:00N 49°11' W 122°55'0 0.0
2018-Feb-20 14:30N 49°11' W 122°55'0 0.2
2018-Feb-20 14:00N 49°11' W 122°55'3 6.7
2018-Feb-20 13:30N 49°09' W 122°60'5 9.7
2018-Feb-20 13:00N 49°07' W 123°06'5 9.3
2018-Feb-20 12:30N 49°08' W 123°13'4 8.6
2018-Feb-20 12:00N 49°06' W 123°19'2 3.7
2018-Feb-20 11:30N 49°04' W 123°20'713.4
2018-Feb-20 11:00N 48°60' W 123°13'917.2
2018-Feb-20 10:30N 48°53' W 123°04'714.2
2018-Feb-20 10:00N 48°46' W 123°02'816.4
2018-Feb-20 09:30N 48°42' W 123°13'815.2
2018-Feb-20 09:00N 48°35' W 123°13'815.7
2018-Feb-20 08:30N 48°27' W 123°10'713.8
2018-Feb-20 08:01N 48°22' W 123°17'510.2
2018-Feb-20 07:31N 48°20' W 123°24'712.5
2018-Feb-20 06:59N 48°14' W 123°30'510.0
2018-Feb-20 06:30N 48°13' W 123°37'4 8.8
2018-Feb-20 06:00N 48°13' W 123°43'4 8.6
2018-Feb-20 05:30N 48°13' W 123°50'4 8.0
2018-Feb-20 05:01N 48°13' W 123°56'4 8.2
2018-Feb-20 04:30N 48°15' W 124°01'4 8.4
2018-Feb-20 04:00N 48°17' W 124°07'4 8.4
2018-Feb-20 03:30N 48°19' W 124°13'5 8.9
2018-Feb-20 02:59N 48°21' W 124°19'4 8.9
2018-Feb-20 02:31N 48°23' W 124°25'5 9.1
2018-Feb-20 02:00N 48°24' W 124°31'5 9.1
2018-Feb-20 01:30N 48°26' W 124°37'4 8.9
2018-Feb-20 01:00N 48°28' W 124°43'4 8.9
2018-Feb-20 00:30N 48°28' W 124°50'5 9.2
2018-Feb-20 00:00N 48°28' W 124°57'5 9.6
2018-Feb-19 23:29N 48°28' W 125°05'5 9.8
2018-Feb-19 23:00N 48°29' W 125°12'5 9.8
2018-Feb-19 22:30N 48°29' W 125°19'5 9.4
2018-Feb-19 22:01N 48°29' W 125°26'5 9.1
2018-Feb-19 21:30N 48°29' W 125°33'4 9.0
2018-Feb-19 21:00N 48°29' W 125°40'510.3
2018-Feb-19 20:31N 48°29' W 125°48'5 9.3
2018-Feb-19 20:01N 48°29' W 125°55'5 9.2
2018-Feb-19 19:30N 48°29' W 126°02'5 9.2
2018-Feb-19 19:01N 48°28' W 126°08'5 9.3
2018-Feb-19 18:30N 48°28' W 126°15'5 9.4
2018-Feb-19 17:59N 48°28' W 126°23'5 9.2
2018-Feb-19 17:26N 48°28' W 126°30'  

Dump ship's entire track history